TFM - Tactical Decision Aid
ID: Runway Winds: CIG/VIS Threshold:

KSLC - Salt Lake City Intl, UT, US

Updated at: 1608 UTC 22 Sep 2019
Latest TAF at: 1500 UTC 22 Sep 2019

TAF Board

Time1554Z 22/17Z 22/18Z 22/19Z 22/20Z 22/21Z 22/22Z 22/23Z 23/00Z 23/01Z 23/02Z 23/03Z 23/04Z 23/05Z>>
Type OBS PRVL PRVL PRVL PRVL PRVL PRVL PRVL PRVL PRVL PRVL PRVL PRVL PRVL
VIS 10 >6 >6 >6 >6 >6 >6 >6 >6 >6 >6 >6 >6 >6
CIG -- -- -- -- -- -- -- -- -- -- -- -- -- --
Cover CLR SKC SKC SKC SKC SKC SKC SKC SKC SKC SKC SKC SKC SKC
FltCat VFR VFR VFR VFR VFR VFR VFR VFR VFR VFR VFR VFR VFR VFR
WX -- -- -- -- -- -- -- -- -- -- -- -- -- --
WDir 160 150 150 150 310 310 310 310 310 310 310 310 160 160
WSpd 8 7 7 7 7 7 7 7 7 7 7 7 9 9
WGst -- -- -- -- -- -- -- -- -- -- -- -- -- --

TDA Impact Legend

  None Marginal Slight Moderate High
Visibility (sm) >5 3≤X≤5 1≤X<3 0.5≤X<1 <0.5
Ceiling (100 ft) >30 10≤X≤30 4≤X<10 2≤X<4 <2
Wind Speed (kt) <15 15≤X<25 25≤X<30 ≥30
Wind Gust (kt) <15 15≤X<25 25≤X<35 ≥35
Weather No Wx Reported VCTS -TS,-FZRA TS,FZRA +TS,+FZRA
TAF
KSLC 221500Z 2215/2318 15007KT P6SM SKC
  FM222000 31007KT P6SM SKC
  FM230400 16009KT P6SM SKC


METAR
KSLC 221554Z 16008KT 10SM CLR 14/03 A3018 RMK AO2 SLP194 T01390033
KSLC 221454Z 15009KT 10SM CLR 12/04 A3018 RMK AO2 SLP197 T01170044 51006
KSLC 221354Z 14006KT 10SM CLR 09/03 A3018 RMK AO2 SLP197 T00890033
KSLC 221254Z 14007KT 10SM CLR 08/03 A3017 RMK AO2 SLP193 T00830033

Radar Display
Forecast Discussion